EDDS/STR METAR and TAF weather

Enter ICAO airport designator
Station Type Date Time Source
EDDS METAR 2022/05/23 15:20 UTC NOAA

EDDS 231520Z AUTO 20006KT 150V260 CAVOK 22/15 Q1004 TEMPO 22020G35KT TSRA BKN040CB


Station Type Date Time Source
EDDS Decoded METAR 2022/05/23 15:20 UTC NOAA

Stuttgart-Echterdingen, Germany (EDDS) 48-41N 009-13E 391M
May 23, 2022 - 11:20 AM EDT / 2022.05.23 1520 UTC
Wind: from the SSW (200 degrees) at 7 MPH (6 KT) (direction variable):0
Visibility: greater than 7 mile(s):0
Weather: Cumulonimbus clouds observed
Temperature: 71 F (22 C)
Dew Point: 59 F (15 C)
Relative Humidity: 64%
Pressure (altimeter): 29.65 in. Hg (1004 hPa)
ob: EDDS 231520Z AUTO 20006KT 150V260 CAVOK 22/15 Q1004 TEMPO 22020G35KT TSRA BKN040CB
cycle: 15

Station Type Date Time Source
EDDS TAF 2022/05/23 12:31 UTC NOAA

TAF EDDS 231100Z 2312/2412 22006KT 9999 SCT030
TEMPO 2312/2313 23025G40KT 2500 +TSRA BKN030CB
TEMPO 2313/2319 23020G35KT 4000 TSRA BKN030CB PROB30
TEMPO 2315/2318 25030G45KT 1500 +TSRAGR BKN020CB

Example: see airport list